createdAt,value
2019-06-27T00:01:12.491Z,4.97
2019-06-27T00:03:41.879Z,2.90
2019-06-27T00:06:11.211Z,2.50
2019-06-27T00:08:40.537Z,4.43
2019-06-27T00:11:09.789Z,4.27
2019-06-27T00:13:39.051Z,3.07
2019-06-27T00:16:08.534Z,3.93
2019-06-27T00:18:37.863Z,4.33
2019-06-27T00:21:07.146Z,3.83
2019-06-27T00:23:36.486Z,3.50
2019-06-27T00:26:05.814Z,3.40
2019-06-27T00:28:35.136Z,3.20
2019-06-27T00:31:04.463Z,3.57
2019-06-27T00:33:34.411Z,6.53
2019-06-27T00:36:03.726Z,7.27
2019-06-27T00:38:33.284Z,5.77
2019-06-27T00:41:02.603Z,4.83
2019-06-27T00:43:31.900Z,4.50
2019-06-27T00:46:01.232Z,5.27
2019-06-27T00:48:30.531Z,5.13
2019-06-27T00:50:59.783Z,3.53
2019-06-27T00:53:29.135Z,5.13
2019-06-27T00:55:58.391Z,5.93
2019-06-27T00:58:27.724Z,4.80
2019-06-27T01:00:56.976Z,5.43
2019-06-27T01:03:26.315Z,6.07
2019-06-27T01:05:55.583Z,7.00
2019-06-27T01:08:24.922Z,5.80
2019-06-27T01:10:54.264Z,4.83
2019-06-27T01:13:23.639Z,3.70
2019-06-27T01:15:52.971Z,4.13
2019-06-27T01:18:22.304Z,3.60
2019-06-27T01:20:51.572Z,3.77
2019-06-27T01:23:20.991Z,3.80
2019-06-27T01:25:50.235Z,4.47
2019-06-27T01:28:19.583Z,2.80
2019-06-27T01:30:48.895Z,4.03
2019-06-27T01:33:18.188Z,2.73
2019-06-27T01:35:47.448Z,5.63
2019-06-27T01:38:16.886Z,2.90
2019-06-27T01:40:46.220Z,4.97
2019-06-27T01:43:15.562Z,4.63
2019-06-27T01:45:51.465Z,4.70
2019-06-27T01:48:21.209Z,5.23
2019-06-27T01:50:50.543Z,3.30
2019-06-27T01:53:19.885Z,3.07
2019-06-27T01:55:49.219Z,4.20
2019-06-27T01:58:18.561Z,4.67
2019-06-27T02:00:47.889Z,5.90
2019-06-27T02:03:17.228Z,4.33
2019-06-27T02:05:46.563Z,5.80
2019-06-27T02:08:15.915Z,4.13
2019-06-27T02:10:45.255Z,4.00
2019-06-27T02:13:14.593Z,3.80
2019-06-27T02:15:43.935Z,4.63
2019-06-27T02:18:13.555Z,4.10
2019-06-27T02:20:42.905Z,3.63
2019-06-27T02:23:15.675Z,4.07
2019-06-27T02:25:43.261Z,4.23
2019-06-27T02:28:12.506Z,5.97
2019-06-27T02:30:42.250Z,5.63
2019-06-27T02:33:11.680Z,5.43
2019-06-27T02:35:41.196Z,5.73
2019-06-27T02:38:10.547Z,4.27
2019-06-27T02:40:39.885Z,7.53
2019-06-27T02:43:09.230Z,5.93
2019-06-27T02:45:38.603Z,6.97
2019-06-27T02:48:07.942Z,8.30
2019-06-27T02:50:37.311Z,6.13
2019-06-27T02:53:06.647Z,4.67
2019-06-27T02:55:35.986Z,5.43
2019-06-27T02:58:27.484Z,6.83
2019-06-27T03:00:36.398Z,4.00
2019-06-27T03:03:05.781Z,4.63
2019-06-27T03:05:35.127Z,5.77
2019-06-27T03:08:04.769Z,5.97
2019-06-27T03:10:34.050Z,6.60
2019-06-27T03:13:03.393Z,7.43
2019-06-27T03:15:32.744Z,6.00
2019-06-27T03:18:02.088Z,5.70
2019-06-27T03:20:31.361Z,8.17
2019-06-27T03:23:00.823Z,5.53
2019-06-27T03:25:30.181Z,4.80
2019-06-27T03:27:59.525Z,4.60
2019-06-27T03:30:28.888Z,5.67
2019-06-27T03:32:58.171Z,7.43
2019-06-27T03:35:27.492Z,9.30
2019-06-27T03:37:56.952Z,7.17
2019-06-27T03:40:26.301Z,6.50
2019-06-27T03:42:55.657Z,8.40
2019-06-27T03:45:25.031Z,9.03
2019-06-27T03:47:54.444Z,7.73
2019-06-27T03:50:24.085Z,10.67
2019-06-27T03:52:53.436Z,9.63
2019-06-27T03:55:22.779Z,10.57
2019-06-27T03:57:52.067Z,13.33
2019-06-27T04:00:24.815Z,9.03
2019-06-27T04:02:54.195Z,12.23
2019-06-27T04:05:23.575Z,11.00
2019-06-27T04:07:53.031Z,10.13
2019-06-27T04:10:22.397Z,8.77
2019-06-27T04:12:51.736Z,12.10
2019-06-27T04:15:21.116Z,12.07
2019-06-27T04:17:50.728Z,11.33
2019-06-27T04:20:20.092Z,10.00
2019-06-27T04:22:49.498Z,9.77
2019-06-27T04:25:18.919Z,12.17
2019-06-27T04:27:48.524Z,12.27
2019-06-27T04:30:17.879Z,13.40
2019-06-27T04:32:47.265Z,13.03
2019-06-27T04:35:16.642Z,14.87
2019-06-27T04:37:46.012Z,12.63
2019-06-27T04:40:15.372Z,15.20
2019-06-27T04:42:44.741Z,13.63
2019-06-27T04:45:14.093Z,13.63
2019-06-27T04:47:43.605Z,12.20
2019-06-27T04:50:12.996Z,14.50
2019-06-27T04:52:42.379Z,14.70
2019-06-27T04:55:11.768Z,13.03
2019-06-27T04:57:41.147Z,16.33
2019-06-27T05:00:10.588Z,16.00
2019-06-27T05:02:40.030Z,15.97
2019-06-27T05:05:09.388Z,16.23
2019-06-27T05:07:39.000Z,14.07
2019-06-27T05:10:08.365Z,14.77
2019-06-27T05:12:37.705Z,17.80
2019-06-27T05:15:07.059Z,16.20
2019-06-27T05:17:36.627Z,15.10
2019-06-27T05:20:05.982Z,13.43
2019-06-27T05:22:35.360Z,17.10
2019-06-27T05:25:04.730Z,20.10
2019-06-27T05:27:34.095Z,14.33
2019-06-27T05:30:09.203Z,15.30
2019-06-27T05:32:34.555Z,20.03
2019-06-27T05:35:04.029Z,20.17
2019-06-27T05:37:33.315Z,21.13
2019-06-27T05:40:02.718Z,20.50
2019-06-27T05:42:32.095Z,25.50
2019-06-27T05:45:02.459Z,22.20
2019-06-27T05:47:31.780Z,32.00
2019-06-27T05:50:01.203Z,26.73
2019-06-27T05:52:30.707Z,27.70
2019-06-27T05:55:00.278Z,26.77
2019-06-27T05:57:29.672Z,28.63
2019-06-27T05:59:58.996Z,32.57
2019-06-27T06:02:28.378Z,23.07
2019-06-27T06:04:57.730Z,27.50
2019-06-27T06:07:27.180Z,26.80
2019-06-27T06:09:56.550Z,31.93
2019-06-27T06:12:25.924Z,34.33
2019-06-27T06:14:55.222Z,33.50
2019-06-27T06:17:24.613Z,39.73
2019-06-27T06:19:53.958Z,35.87
2019-06-27T06:22:23.327Z,34.43
2019-06-27T06:24:52.696Z,33.10
2019-06-27T06:27:22.047Z,28.30
2019-06-27T06:29:51.382Z,36.53
2019-06-27T06:32:21.061Z,35.03
2019-06-27T06:34:50.359Z,40.13
2019-06-27T06:37:19.654Z,32.53
2019-06-27T06:39:49.038Z,36.13
2019-06-27T06:42:18.439Z,34.63
2019-06-27T06:44:47.783Z,41.00
2019-06-27T06:47:17.143Z,35.97
2019-06-27T06:49:46.483Z,36.13
2019-06-27T06:52:15.778Z,37.47
2019-06-27T06:54:45.062Z,36.07
2019-06-27T06:57:14.414Z,41.53
2019-06-27T06:59:43.871Z,41.63
2019-06-27T07:02:14.616Z,42.57
2019-06-27T07:04:43.923Z,37.33
2019-06-27T07:07:13.407Z,36.97
2019-06-27T07:09:42.788Z,37.47
2019-06-27T07:12:12.206Z,39.50
2019-06-27T07:14:43.613Z,34.57
2019-06-27T07:17:13.033Z,32.17
2019-06-27T07:19:42.382Z,32.70
2019-06-27T07:22:11.727Z,28.77
2019-06-27T07:24:41.203Z,31.93
2019-06-27T07:27:10.551Z,34.37
2019-06-27T07:29:39.905Z,35.83
2019-06-27T07:32:09.186Z,34.73
2019-06-27T07:34:38.545Z,33.53
2019-06-27T07:37:07.933Z,37.87
2019-06-27T07:39:37.381Z,38.27
2019-06-27T07:42:06.737Z,38.10
2019-06-27T07:44:36.107Z,36.77
2019-06-27T07:47:05.445Z,37.37
2019-06-27T07:49:34.832Z,35.47
2019-06-27T07:52:04.215Z,35.73
2019-06-27T07:54:33.612Z,32.63
2019-06-27T07:57:03.080Z,33.73
2019-06-27T07:59:32.514Z,32.00
2019-06-27T08:02:01.896Z,34.73
2019-06-27T08:04:31.320Z,35.07
2019-06-27T08:07:00.687Z,29.60
2019-06-27T08:09:30.136Z,28.83
2019-06-27T08:11:59.768Z,29.00
2019-06-27T08:14:29.115Z,29.70
2019-06-27T08:16:58.746Z,30.50
2019-06-27T08:19:28.431Z,30.60
2019-06-27T08:21:58.317Z,30.47
2019-06-27T08:24:27.869Z,29.97
2019-06-27T08:26:57.224Z,31.23
2019-06-27T08:29:26.708Z,30.03
2019-06-27T08:31:56.071Z,25.83
2019-06-27T08:34:25.346Z,26.30
2019-06-27T08:36:54.719Z,26.80
2019-06-27T08:39:24.088Z,26.90
2019-06-27T08:41:53.625Z,32.00
2019-06-27T08:44:23.025Z,23.90
2019-06-27T08:46:52.425Z,27.37
2019-06-27T08:49:21.726Z,24.23
2019-06-27T08:51:51.155Z,21.63
2019-06-27T08:54:20.734Z,21.77
2019-06-27T08:56:50.268Z,21.60
2019-06-27T08:59:19.676Z,21.70
2019-06-27T09:01:49.346Z,22.50
2019-06-27T09:04:18.772Z,22.80
2019-06-27T09:06:48.219Z,21.33
2019-06-27T09:09:17.768Z,18.93
2019-06-27T09:11:47.426Z,19.60
2019-06-27T09:14:16.944Z,19.37
2019-06-27T09:16:46.952Z,18.87
2019-06-27T09:19:19.426Z,21.07
2019-06-27T09:21:48.999Z,19.27
2019-06-27T09:24:18.447Z,17.57
2019-06-27T09:26:47.858Z,18.40
2019-06-27T09:29:17.162Z,18.87
2019-06-27T09:31:46.575Z,20.07
2019-06-27T09:34:15.929Z,18.43
2019-06-27T09:36:45.299Z,16.97
2019-06-27T09:39:14.700Z,15.43
2019-06-27T09:41:44.101Z,16.73
2019-06-27T09:44:13.491Z,14.40
2019-06-27T09:46:42.976Z,14.10
2019-06-27T09:49:12.494Z,11.90
2019-06-27T09:51:41.935Z,14.63
2019-06-27T09:54:12.877Z,11.97
2019-06-27T09:56:42.298Z,12.53
2019-06-27T09:59:11.804Z,10.63
2019-06-27T10:01:41.159Z,11.93
2019-06-27T10:04:10.611Z,10.73
2019-06-27T10:06:39.999Z,10.13
2019-06-27T10:09:09.504Z,11.83
2019-06-27T10:11:38.927Z,10.03
2019-06-27T10:14:08.418Z,10.93
2019-06-27T10:16:38.188Z,10.40
2019-06-27T10:19:07.655Z,11.83
2019-06-27T10:21:36.938Z,9.33
2019-06-27T10:24:06.393Z,8.33
2019-06-27T10:26:36.036Z,7.73
2019-06-27T10:29:05.483Z,10.67
2019-06-27T10:31:34.981Z,8.60
2019-06-27T10:34:04.522Z,8.67
2019-06-27T10:36:33.983Z,8.27
2019-06-27T10:39:05.185Z,7.07
2019-06-27T10:41:34.555Z,8.10
2019-06-27T10:44:04.122Z,7.37
2019-06-27T10:46:33.486Z,6.40
2019-06-27T10:49:02.872Z,6.37
2019-06-27T10:51:32.227Z,5.60
2019-06-27T10:54:01.617Z,5.27
2019-06-27T10:56:31.038Z,5.17
2019-06-27T10:59:00.403Z,4.73
2019-06-27T11:01:30.038Z,5.43
2019-06-27T11:03:59.330Z,6.23
2019-06-27T11:06:28.770Z,5.70
2019-06-27T11:08:58.179Z,5.67
2019-06-27T11:11:27.638Z,5.63
2019-06-27T11:13:59.243Z,5.30
2019-06-27T11:16:28.051Z,4.33
2019-06-27T11:18:57.415Z,4.07
2019-06-27T11:21:26.765Z,5.03
2019-06-27T11:23:56.149Z,5.07
2019-06-27T11:26:25.490Z,4.87
2019-06-27T11:28:55.233Z,6.07
2019-06-27T11:31:24.939Z,5.17
2019-06-27T11:33:54.334Z,4.90
2019-06-27T11:36:23.666Z,4.97
2019-06-27T11:38:53.058Z,4.67
2019-06-27T11:41:22.423Z,4.10
2019-06-27T11:43:51.718Z,6.10
2019-06-27T11:46:21.255Z,8.03
2019-06-27T11:48:50.676Z,7.90
2019-06-27T11:51:20.077Z,7.67
2019-06-27T11:53:49.407Z,7.70
2019-06-27T11:56:18.762Z,7.93
2019-06-27T11:58:48.055Z,9.17
2019-06-27T12:01:17.390Z,6.70
2019-06-27T12:03:49.764Z,6.67
2019-06-27T12:06:17.798Z,8.87
2019-06-27T12:08:47.215Z,5.97
2019-06-27T12:11:16.688Z,4.90
2019-06-27T12:13:46.027Z,5.63
2019-06-27T12:16:15.444Z,7.73
2019-06-27T12:18:44.818Z,4.97
2019-06-27T12:21:14.276Z,5.60
2019-06-27T12:23:43.628Z,4.27
2019-06-27T12:26:12.997Z,5.93
2019-06-27T12:28:42.524Z,7.23
2019-06-27T12:31:20.445Z,5.83
2019-06-27T12:33:43.008Z,4.27
2019-06-27T12:36:12.294Z,4.13
2019-06-27T12:38:41.830Z,4.93
2019-06-27T12:41:11.355Z,6.50
2019-06-27T12:43:41.097Z,4.73
2019-06-27T12:46:10.589Z,7.80
2019-06-27T12:48:40.076Z,4.93
2019-06-27T12:51:09.435Z,7.93
2019-06-27T12:53:38.770Z,7.03
2019-06-27T12:56:08.285Z,4.90
2019-06-27T12:58:37.643Z,5.07
2019-06-27T13:01:06.990Z,4.47
2019-06-27T13:03:36.272Z,4.93
2019-06-27T13:06:05.616Z,5.37
2019-06-27T13:08:35.037Z,5.13
2019-06-27T13:11:04.452Z,6.07
2019-06-27T13:13:33.718Z,4.57
2019-06-27T13:16:03.167Z,4.07
2019-06-27T13:18:32.462Z,4.30
2019-06-27T13:21:01.915Z,5.20
2019-06-27T13:23:31.242Z,3.93
2019-06-27T13:26:00.621Z,4.23
2019-06-27T13:28:30.035Z,4.90
2019-06-27T13:30:59.429Z,4.97
2019-06-27T13:33:28.817Z,3.87
2019-06-27T13:35:58.196Z,5.00
2019-06-27T13:38:27.622Z,5.10
2019-06-27T13:40:57.157Z,5.47
2019-06-27T13:43:26.542Z,3.70
2019-06-27T13:45:55.897Z,5.10
2019-06-27T13:48:25.357Z,4.47
2019-06-27T13:50:57.681Z,5.03
2019-06-27T13:53:25.804Z,6.63
2019-06-27T13:55:55.372Z,4.37
2019-06-27T13:58:24.971Z,4.90
2019-06-27T14:00:54.662Z,3.90
2019-06-27T14:03:24.357Z,5.67
2019-06-27T14:05:53.860Z,3.50
2019-06-27T14:08:26.220Z,5.70
2019-06-27T14:10:55.013Z,5.00
2019-06-27T14:13:24.430Z,2.23
2019-06-27T14:15:53.921Z,2.77
2019-06-27T14:18:23.330Z,3.77
2019-06-27T14:20:52.891Z,3.07
2019-06-27T14:23:22.305Z,5.73
2019-06-27T14:25:51.883Z,4.70
2019-06-27T14:28:21.276Z,3.43
2019-06-27T14:30:50.669Z,3.20
2019-06-27T14:33:20.082Z,4.80
2019-06-27T14:35:49.494Z,3.33
2019-06-27T14:38:18.977Z,2.47
2019-06-27T14:40:48.486Z,2.77
2019-06-27T14:43:17.888Z,2.70
2019-06-27T14:45:47.251Z,3.20
2019-06-27T14:48:16.657Z,3.73
2019-06-27T14:50:46.107Z,3.53
2019-06-27T14:53:15.559Z,3.93
2019-06-27T14:55:44.968Z,4.10
2019-06-27T14:58:14.361Z,5.67
2019-06-27T15:00:43.809Z,1.93
2019-06-27T15:03:13.209Z,2.20
2019-06-27T15:05:42.625Z,2.93
2019-06-27T15:08:12.097Z,3.17
2019-06-27T15:10:41.558Z,3.77
2019-06-27T15:13:10.983Z,1.80
2019-06-27T15:15:40.425Z,2.73
2019-06-27T15:18:09.814Z,4.50
2019-06-27T15:20:39.186Z,5.03
2019-06-27T15:23:08.622Z,2.83
2019-06-27T15:25:38.057Z,5.07
2019-06-27T15:28:07.446Z,2.00
2019-06-27T15:30:36.895Z,2.63
2019-06-27T15:33:06.332Z,2.77
2019-06-27T15:35:50.979Z,3.53
2019-06-27T15:38:06.867Z,3.73
2019-06-27T15:40:36.273Z,3.03
2019-06-27T15:43:05.675Z,2.13
2019-06-27T15:45:35.179Z,2.83
2019-06-27T15:48:06.182Z,4.87
2019-06-27T15:50:35.758Z,2.13
2019-06-27T15:53:05.234Z,5.03
2019-06-27T15:55:34.638Z,2.97
2019-06-27T15:58:04.092Z,1.97
2019-06-27T16:00:33.558Z,2.23
2019-06-27T16:03:03.006Z,3.57
2019-06-27T16:05:32.564Z,2.73
2019-06-27T16:08:02.233Z,1.87
2019-06-27T16:10:31.843Z,3.33
2019-06-27T16:13:10.174Z,4.00
2019-06-27T16:15:39.510Z,3.67
2019-06-27T16:18:09.174Z,1.80
2019-06-27T16:20:38.646Z,3.20
2019-06-27T16:23:08.033Z,2.20
2019-06-27T16:25:41.088Z,3.00
2019-06-27T16:28:10.565Z,4.63
2019-06-27T16:30:39.975Z,4.67
2019-06-27T16:33:12.553Z,3.30
2019-06-27T16:35:42.129Z,1.93
2019-06-27T16:38:11.536Z,1.93
2019-06-27T16:40:41.093Z,4.97
2019-06-27T16:43:10.525Z,4.97
2019-06-27T16:45:40.733Z,3.97
2019-06-27T16:48:10.139Z,3.13
2019-06-27T16:50:39.548Z,3.20
2019-06-27T16:53:08.978Z,2.73
2019-06-27T16:55:38.363Z,2.53
2019-06-27T16:58:07.806Z,3.03
2019-06-27T17:00:37.190Z,3.00
2019-06-27T17:03:06.800Z,2.50
2019-06-27T17:05:36.179Z,1.70
2019-06-27T17:08:05.594Z,3.07
2019-06-27T17:10:35.133Z,3.40
2019-06-27T17:13:04.586Z,3.40
2019-06-27T17:15:34.032Z,2.77
2019-06-27T17:18:03.565Z,3.43
2019-06-27T17:20:33.134Z,2.97
2019-06-27T17:23:05.466Z,3.20
2019-06-27T17:25:33.680Z,4.43
2019-06-27T17:28:03.242Z,2.70
2019-06-27T17:30:32.746Z,3.10
2019-06-27T17:33:02.297Z,4.23
2019-06-27T17:35:32.538Z,2.97
2019-06-27T17:38:01.978Z,3.17
2019-06-27T17:40:31.426Z,3.73
2019-06-27T17:43:00.836Z,2.07
2019-06-27T17:45:30.234Z,3.57
2019-06-27T17:47:59.652Z,3.70
2019-06-27T17:50:29.119Z,2.60
2019-06-27T17:52:58.634Z,4.07
2019-06-27T17:55:28.030Z,1.57
2019-06-27T17:57:57.442Z,2.47
2019-06-27T18:00:26.914Z,2.07
2019-06-27T18:02:56.511Z,4.00
2019-06-27T18:05:26.113Z,1.77
2019-06-27T18:07:55.486Z,4.53
2019-06-27T18:10:25.053Z,3.40
2019-06-27T18:12:54.655Z,4.63
2019-06-27T18:15:24.117Z,1.97
2019-06-27T18:17:53.640Z,1.73
2019-06-27T18:20:23.111Z,2.27
2019-06-27T18:22:52.478Z,2.10
2019-06-27T18:25:21.758Z,2.33
2019-06-27T18:27:51.292Z,3.47
2019-06-27T18:30:20.851Z,3.60
2019-06-27T18:32:50.218Z,2.13
2019-06-27T18:35:19.914Z,1.70
2019-06-27T18:37:49.446Z,2.90
2019-06-27T18:40:19.071Z,3.17
2019-06-27T18:42:48.460Z,2.53
2019-06-27T18:45:18.315Z,2.60
2019-06-27T18:47:47.757Z,2.77
2019-06-27T18:50:21.082Z,2.33
2019-06-27T18:52:50.431Z,3.23
2019-06-27T18:55:19.802Z,2.20
2019-06-27T18:57:49.091Z,2.77
2019-06-27T19:00:18.478Z,2.63
2019-06-27T19:02:47.944Z,2.77
2019-06-27T19:05:17.366Z,1.83
2019-06-27T19:07:46.783Z,1.47
2019-06-27T19:10:17.687Z,3.27
2019-06-27T19:12:47.160Z,2.53
2019-06-27T19:15:16.729Z,1.90
2019-06-27T19:17:46.078Z,2.13
2019-06-27T19:20:30.414Z,1.40
2019-06-27T19:23:06.282Z,1.97
2019-06-27T19:25:36.136Z,2.43
2019-06-27T19:28:05.602Z,1.20
2019-06-27T19:30:34.932Z,2.07
2019-06-27T19:33:04.286Z,2.67
2019-06-27T19:35:33.632Z,2.20
2019-06-27T19:38:03.203Z,2.70
2019-06-27T19:40:32.614Z,3.60
2019-06-27T19:43:02.418Z,3.30
2019-06-27T19:45:31.805Z,2.43
2019-06-27T19:48:01.235Z,2.73
2019-06-27T19:50:30.611Z,2.27
2019-06-27T19:52:59.980Z,4.43
2019-06-27T19:55:29.338Z,3.70
2019-06-27T19:57:58.846Z,2.93
2019-06-27T20:00:28.267Z,2.90
2019-06-27T20:02:57.667Z,4.17
2019-06-27T20:05:27.035Z,3.73
2019-06-27T20:07:56.366Z,3.57
2019-06-27T20:10:25.747Z,6.40
2019-06-27T20:12:55.102Z,4.00
2019-06-27T20:15:24.516Z,4.73
2019-06-27T20:17:53.817Z,4.07
2019-06-27T20:20:23.205Z,2.83
2019-06-27T20:22:52.830Z,5.03
2019-06-27T20:25:22.194Z,3.47
2019-06-27T20:27:51.490Z,3.00
2019-06-27T20:30:21.502Z,3.00
2019-06-27T20:32:50.855Z,3.63
2019-06-27T20:35:20.141Z,2.77
2019-06-27T20:37:49.480Z,4.53
2019-06-27T20:40:19.152Z,3.30
2019-06-27T20:42:48.568Z,2.97
2019-06-27T20:45:17.918Z,4.30
2019-06-27T20:47:48.970Z,3.13
2019-06-27T20:50:19.249Z,3.93
2019-06-27T20:52:48.580Z,2.73
2019-06-27T20:55:17.935Z,3.50
2019-06-27T20:57:47.208Z,2.70
2019-06-27T21:00:16.752Z,3.77
2019-06-27T21:02:46.178Z,4.37
2019-06-27T21:05:15.533Z,2.63
2019-06-27T21:07:44.873Z,3.33
2019-06-27T21:10:14.276Z,3.70
2019-06-27T21:12:43.621Z,4.67
2019-06-27T21:15:13.097Z,4.80
2019-06-27T21:17:42.448Z,4.73
2019-06-27T21:20:11.784Z,4.70
2019-06-27T21:22:41.387Z,4.73
2019-06-27T21:25:10.849Z,3.53
2019-06-27T21:27:40.221Z,3.20
2019-06-27T21:30:09.783Z,2.70
2019-06-27T21:32:39.111Z,3.07
2019-06-27T21:35:08.510Z,4.10
2019-06-27T21:37:37.847Z,3.50
2019-06-27T21:40:07.518Z,3.93
2019-06-27T21:42:36.858Z,3.13
2019-06-27T21:45:06.503Z,2.80
2019-06-27T21:47:35.854Z,3.37
2019-06-27T21:50:05.264Z,3.97
2019-06-27T21:52:34.635Z,4.27
2019-06-27T21:55:04.060Z,3.37
2019-06-27T21:57:33.342Z,4.60
2019-06-27T22:00:02.696Z,6.50
2019-06-27T22:02:32.134Z,3.87
2019-06-27T22:05:01.478Z,4.00
2019-06-27T22:07:30.897Z,3.53
2019-06-27T22:10:00.309Z,3.07
2019-06-27T22:12:29.647Z,3.60
2019-06-27T22:14:59.003Z,3.13
2019-06-27T22:17:28.353Z,4.63
2019-06-27T22:20:10.716Z,3.50
2019-06-27T22:22:28.726Z,4.97
2019-06-27T22:24:57.990Z,3.50
2019-06-27T22:27:27.375Z,3.97
2019-06-27T22:29:56.718Z,3.80
2019-06-27T22:32:26.075Z,2.87
2019-06-27T22:34:55.414Z,2.53
2019-06-27T22:37:24.092Z,2.97
2019-06-27T22:40:12.027Z,5.63
2019-06-27T22:42:59.439Z,4.23
2019-06-27T22:45:46.403Z,2.87
2019-06-27T22:48:15.044Z,2.53
2019-06-27T22:51:11.086Z,2.80
2019-06-27T22:53:46.815Z,3.43
2019-06-27T22:56:16.089Z,3.20
2019-06-27T22:58:45.441Z,2.63
2019-06-27T23:01:14.782Z,2.40
2019-06-27T23:03:44.055Z,2.90
2019-06-27T23:06:13.387Z,2.37
2019-06-27T23:08:42.668Z,2.10
2019-06-27T23:11:12.003Z,2.60
2019-06-27T23:13:41.537Z,2.50
2019-06-27T23:16:10.899Z,2.40
2019-06-27T23:18:40.241Z,3.67
2019-06-27T23:21:09.571Z,3.60
2019-06-27T23:23:38.917Z,2.23
2019-06-27T23:26:08.338Z,2.37
2019-06-27T23:28:37.756Z,1.70
2019-06-27T23:31:07.087Z,2.03
2019-06-27T23:33:36.426Z,2.43
2019-06-27T23:36:05.689Z,2.00
2019-06-27T23:38:35.266Z,2.20
2019-06-27T23:41:04.602Z,2.20
2019-06-27T23:43:33.970Z,2.10
2019-06-27T23:46:03.440Z,1.83
2019-06-27T23:48:33.034Z,2.23
2019-06-27T23:51:02.380Z,2.33
2019-06-27T23:53:31.804Z,1.90
2019-06-27T23:56:01.183Z,1.97
2019-06-27T23:58:30.531Z,1.90
